Terminal Aerodrome Forecast
Issued by NWS

Current Version | Previous Version | Text Only | Print | Product List | Glossary On
Versions: 1 2 3 4 5 6 7 8 9 10 11 12 13 14 15 16 17 18 19 20
000 FTUS41 KGYX 211728 TAFPSM TAF KPSM 211728Z 2118/2218 15009KT P6SM SCT100 OVC250 TEMPO 2120/2122 BKN040 FM212200 VRB03KT 5SM BR OVC030 FM220000 VRB03KT 1 1/2SM BR OVC003 FM220800 26004KT 1/2SM FG OVC001 FM221200 24007KT 1/2SM FG SCT250 FM221300 26009KT P6SM FEW250 FM221500 27011G18KT P6SM FEW250=

USA.gov is the U.S. government's official web portal to all federal, state and local government web resources and services.